Time;durP1;ratioP1;P1;durP2;ratioP2;P2;SDS_P1;SDS_P2;PMS_P1;PMS_P2;Temp;Humidity;BMP_temperature;BMP_pressure;BME280_temperature;BME280_humidity;BME280_pressure;Samples;Min_cycle;Max_cycle;Signal;HPM_P1;HPM_P2
2024/04/19 00:01:59;;;;;;;16.33;15.13;;;6.80;82.50;;;;;;5498626;26;20222;-88
2024/04/19 00:04:24;;;;;;;18.00;16.33;;;6.80;82.70;;;;;;5530856;26;20222;-86
2024/04/19 00:06:50;;;;;;;17.63;15.80;;;6.80;83.00;;;;;;5531194;26;20257;-86
2024/04/19 00:09:16;;;;;;;17.37;15.77;;;6.80;82.50;;;;;;5530543;26;20253;-87
2024/04/19 00:11:41;;;;;;;16.87;15.37;;;6.80;82.80;;;;;;5498244;26;20252;-88
2024/04/19 00:14:07;;;;;;;17.30;15.27;;;6.80;82.90;;;;;;5530884;26;20230;-87
2024/04/19 00:16:32;;;;;;;16.77;15.17;;;6.80;83.80;;;;;;5530368;26;20210;-86
2024/04/19 00:18:58;;;;;;;18.30;16.10;;;6.60;83.70;;;;;;5498594;26;20310;-87
2024/04/19 00:21:23;;;;;;;14.10;12.97;;;6.70;84.20;;;;;;5531130;26;20281;-86
2024/04/19 00:23:49;;;;;;;16.13;14.57;;;6.60;84.60;;;;;;5498339;26;20252;-86
2024/04/19 00:26:14;;;;;;;16.63;15.00;;;6.50;84.10;;;;;;5530866;26;20206;-88
2024/04/19 00:28:40;;;;;;;15.23;14.03;;;6.60;84.30;;;;;;5531579;26;20256;-88
2024/04/19 00:31:06;;;;;;;15.50;13.57;;;6.60;84.80;;;;;;5499105;26;20755;-88
2024/04/19 00:33:31;;;;;;;14.80;13.50;;;6.40;85.70;;;;;;5531718;26;20219;-88
2024/04/19 00:35:57;;;;;;;15.77;13.23;;;6.40;85.40;;;;;;5532464;26;20210;-87
2024/04/19 00:38:22;;;;;;;13.57;12.47;;;6.50;85.80;;;;;;5532417;26;20206;-88
2024/04/19 00:40:48;;;;;;;13.80;12.47;;;6.30;86.10;;;;;;5500660;26;20249;-88
2024/04/19 00:43:13;;;;;;;19.23;12.50;;;6.30;86.40;;;;;;5532820;26;20222;-88
2024/04/19 00:45:40;;;;;;;13.03;11.97;;;6.30;86.90;;;;;;5533130;26;20214;-88
2024/04/19 00:48:15;;;;;;;13.60;12.30;;;6.30;87.20;;;;;;5533084;26;20553;-86
2024/04/19 00:50:42;;;;;;;14.00;12.63;;;6.30;87.10;;;;;;5501149;26;20225;-88
2024/04/19 00:53:09;;;;;;;12.97;11.97;;;6.20;87.20;;;;;;5533060;26;20222;-89
2024/04/19 00:55:35;;;;;;;13.93;10.93;;;6.20;87.60;;;;;;5533717;26;20210;-89
2024/04/19 00:58:01;;;;;;;14.30;10.67;;;6.20;87.90;;;;;;5533376;26;20344;-88
2024/04/19 01:00:27;;;;;;;14.47;10.90;;;6.20;88.40;;;;;;5532645;26;20236;-88
2024/04/19 01:02:53;;;;;;;6.43;4.50;;;6.10;88.30;;;;;;5533304;26;20210;-86
2024/04/19 01:05:20;;;;;;;13.87;5.30;;;6.10;88.90;;;;;;5533280;26;20248;-88
2024/04/19 01:07:46;;;;;;;11.63;5.20;;;6.00;88.90;;;;;;5533147;26;20206;-88
2024/04/19 01:10:11;;;;;;;11.07;5.30;;;6.00;89.10;;;;;;5532767;26;20286;-87
2024/04/19 01:12:37;;;;;;;10.70;5.07;;;6.00;89.40;;;;;;5533210;26;20210;-87
2024/04/19 01:15:03;;;;;;;4.43;3.80;;;6.00;89.50;;;;;;5533089;26;20260;-87
2024/04/19 01:17:29;;;;;;;8.00;4.80;;;5.90;90.00;;;;;;5532403;26;20218;-88
2024/04/19 01:19:54;;;;;;;11.07;4.03;;;5.90;90.20;;;;;;5532421;26;20206;-88
2024/04/19 01:22:20;;;;;;;8.87;5.47;;;5.90;90.20;;;;;;5500155;26;20218;-90
2024/04/19 01:24:48;;;;;;;12.37;5.30;;;5.80;89.90;;;;;;5531647;26;20306;-87
2024/04/19 01:27:13;;;;;;;7.87;4.37;;;5.80;89.80;;;;;;5531989;26;20214;-90
2024/04/19 01:29:39;;;;;;;7.83;5.37;;;5.80;89.70;;;;;;5499300;26;20697;-88
2024/04/19 01:32:05;;;;;;;6.37;5.07;;;5.80;89.70;;;;;;5530765;26;20211;-86
2024/04/19 01:34:31;;;;;;;4.27;3.87;;;5.80;90.20;;;;;;5493527;26;20233;-86
2024/04/19 01:36:56;;;;;;;9.47;5.10;;;5.80;89.80;;;;;;5493659;26;20225;-87
2024/04/19 01:39:22;;;;;;;5.00;4.17;;;5.80;90.20;;;;;;5496413;26;20232;-86
2024/04/19 01:41:48;;;;;;;9.90;4.50;;;5.70;89.80;;;;;;5497238;26;20234;-86
2024/04/19 01:44:13;;;;;;;6.50;4.30;;;5.70;89.90;;;;;;5529612;26;20226;-86
2024/04/19 01:46:39;;;;;;;5.07;4.10;;;5.70;89.90;;;;;;5529998;26;20214;-87
2024/04/19 01:49:05;;;;;;;7.77;5.03;;;5.70;90.20;;;;;;5530028;26;20306;-86
2024/04/19 01:51:30;;;;;;;12.93;5.30;;;5.70;90.30;;;;;;5529841;26;20210;-86
2024/04/19 01:53:56;;;;;;;4.63;3.93;;;5.70;90.50;;;;;;5529354;26;20221;-85
2024/04/19 01:56:21;;;;;;;7.17;5.43;;;5.60;90.70;;;;;;5529803;26;20315;-87
2024/04/19 01:58:47;;;;;;;8.67;6.13;;;5.70;90.70;;;;;;5529736;26;20213;-86
2024/04/19 02:01:13;;;;;;;10.77;6.00;;;5.70;91.10;;;;;;5496998;26;20217;-86
2024/04/19 02:03:39;;;;;;;7.33;4.83;;;5.60;90.90;;;;;;5529260;26;20247;-86
2024/04/19 02:06:09;;;;;;;6.00;5.50;;;5.60;91.10;;;;;;5497210;26;20218;-87
2024/04/19 02:08:35;;;;;;;8.13;5.97;;;5.60;91.10;;;;;;5530347;26;20222;-86
2024/04/19 02:11:02;;;;;;;7.17;5.67;;;5.60;91.00;;;;;;5529397;26;20686;-86
2024/04/19 02:13:27;;;;;;;7.87;4.97;;;5.60;91.00;;;;;;5529301;26;20241;-86
2024/04/19 02:15:53;;;;;;;11.07;8.30;;;5.60;90.90;;;;;;5496886;26;20250;-85
2024/04/19 02:18:18;;;;;;;9.53;8.73;;;5.70;91.00;;;;;;5529515;26;20214;-87
2024/04/19 02:20:44;;;;;;;10.77;9.37;;;5.60;91.00;;;;;;5529633;26;20598;-85
2024/04/19 02:23:09;;;;;;;17.13;13.47;;;5.60;91.20;;;;;;5529225;26;20252;-86
2024/04/19 02:25:35;;;;;;;13.03;11.70;;;5.60;91.20;;;;;;5529399;26;20221;-86
2024/04/19 02:30:59;;;;;;;11.97;10.93;;;5.60;91.80;;;;;;5529048;26;20591;-86
2024/04/19 02:33:25;;;;;;;18.27;10.77;;;5.60;91.40;;;;;;5529209;26;20226;-86
2024/04/19 02:35:51;;;;;;;11.07;9.77;;;5.60;91.40;;;;;;5529035;26;20259;-87
2024/04/19 02:38:16;;;;;;;12.13;10.93;;;5.60;91.40;;;;;;5496245;26;20238;-87
2024/04/19 02:40:42;;;;;;;13.90;11.53;;;5.60;91.60;;;;;;5529108;26;20592;-86
2024/04/19 02:43:07;;;;;;;16.53;12.00;;;5.50;91.30;;;;;;5528727;26;20253;-87
2024/04/19 02:45:39;;;;;;;13.67;11.30;;;5.60;91.50;;;;;;5496402;26;20217;-86
2024/04/19 02:48:05;;;;;;;12.73;11.40;;;5.50;91.50;;;;;;5528877;26;20207;-87
2024/04/19 02:50:31;;;;;;;8.97;8.20;;;5.50;91.60;;;;;;5528759;26;20244;-85
2024/04/19 02:52:56;;;;;;;12.73;10.50;;;5.50;91.50;;;;;;5528801;26;20260;-86
2024/04/19 02:55:22;;;;;;;13.67;12.30;;;5.50;91.50;;;;;;5529059;26;20628;-87
2024/04/19 02:57:47;;;;;;;10.83;9.93;;;5.50;91.60;;;;;;5528672;26;20259;-86
2024/04/19 03:00:13;;;;;;;12.30;9.70;;;5.50;91.80;;;;;;5496052;26;20751;-86
2024/04/19 03:02:39;;;;;;;10.77;8.53;;;5.40;92.00;;;;;;5496074;26;20221;-86
2024/04/19 03:05:04;;;;;;;9.67;8.73;;;5.40;91.70;;;;;;5528271;26;20229;-86
2024/04/19 03:07:30;;;;;;;11.43;10.47;;;5.50;91.90;;;;;;5528829;26;20259;-86
2024/04/19 03:09:55;;;;;;;14.50;10.97;;;5.40;91.90;;;;;;5528390;26;20210;-86
2024/04/19 03:12:21;;;;;;;10.37;9.57;;;5.40;91.90;;;;;;5528676;26;20218;-86
2024/04/19 03:14:47;;;;;;;9.50;8.80;;;5.40;91.80;;;;;;5495836;26;20229;-87
2024/04/19 03:17:12;;;;;;;10.57;9.67;;;5.30;91.60;;;;;;5528428;26;20253;-86
2024/04/19 03:19:38;;;;;;;14.07;11.53;;;5.30;91.70;;;;;;5528619;26;20251;-86
2024/04/19 03:22:03;;;;;;;11.90;10.70;;;5.40;91.90;;;;;;5528265;26;20260;-86
2024/04/19 03:24:29;;;;;;;10.27;9.47;;;5.40;92.10;;;;;;5495621;26;20233;-85
2024/04/19 03:26:54;;;;;;;9.30;8.50;;;5.40;92.10;;;;;;5528124;26;20269;-86
2024/04/19 03:29:20;;;;;;;11.13;10.03;;;5.40;91.90;;;;;;5495839;26;20218;-89
2024/04/19 03:31:45;;;;;;;11.20;10.27;;;5.40;91.90;;;;;;5528354;26;20210;-86
2024/04/19 03:34:11;;;;;;;11.20;10.20;;;5.30;92.00;;;;;;5528075;26;20236;-86
2024/04/19 03:36:36;;;;;;;11.80;10.77;;;5.30;92.10;;;;;;5528245;26;20558;-86
2024/04/19 03:39:03;;;;;;;7.30;6.63;;;5.30;92.20;;;;;;5527964;26;20213;-86
2024/04/19 03:41:33;;;;;;;7.90;6.33;;;5.30;92.20;;;;;;5528356;26;20251;-86
2024/04/19 03:46:46;;;;;;;9.17;8.37;;;5.30;92.30;;;;;;5529439;26;20260;-86
2024/04/19 03:49:12;;;;;;;7.67;7.03;;;5.30;92.40;;;;;;5528417;26;20225;-86
2024/04/19 03:51:37;;;;;;;10.33;9.27;;;5.30;92.50;;;;;;5528420;26;20221;-85
2024/04/19 03:54:03;;;;;;;8.73;7.83;;;5.20;92.50;;;;;;5528056;26;20252;-86
2024/04/19 03:56:30;;;;;;;7.47;6.73;;;5.20;92.60;;;;;;5528085;26;20213;-84
2024/04/19 03:58:56;;;;;;;9.00;7.63;;;5.20;92.70;;;;;;5528307;26;20216;-85
2024/04/19 04:01:22;;;;;;;7.57;6.87;;;5.20;92.90;;;;;;5527434;26;20257;-85
2024/04/19 04:03:52;;;;;;;9.37;8.40;;;5.20;92.80;;;;;;5495285;26;20232;-86
2024/04/19 04:06:17;;;;;;;8.73;7.83;;;5.20;92.80;;;;;;5495255;26;20224;-86
2024/04/19 04:08:43;;;;;;;9.47;8.67;;;5.20;92.90;;;;;;5527827;26;20209;-87
2024/04/19 04:11:12;;;;;;;11.83;9.20;;;5.20;93.10;;;;;;5527830;26;20209;-86
2024/04/19 04:13:38;;;;;;;11.20;9.97;;;5.20;93.10;;;;;;5527610;26;20260;-87
2024/04/19 04:16:06;;;;;;;11.40;8.90;;;5.20;93.20;;;;;;5528077;26;20591;-89
2024/04/19 04:18:31;;;;;;;8.60;7.87;;;5.20;93.20;;;;;;5527684;26;20214;-87
2024/04/19 04:20:57;;;;;;;8.73;7.53;;;5.20;93.30;;;;;;5527513;26;20602;-86
2024/04/19 04:23:22;;;;;;;8.47;7.67;;;5.20;93.30;;;;;;5527583;26;20275;-86
2024/04/19 04:25:48;;;;;;;6.67;6.07;;;5.20;93.40;;;;;;5495213;26;20286;-85
2024/04/19 04:28:13;;;;;;;8.27;7.47;;;5.10;93.40;;;;;;5527621;26;20217;-86
2024/04/19 04:30:39;;;;;;;7.70;7.00;;;5.10;93.30;;;;;;5527860;26;20575;-86
2024/04/19 04:33:05;;;;;;;8.67;7.87;;;5.10;93.20;;;;;;5527252;26;20221;-86
2024/04/19 04:35:31;;;;;;;8.53;7.73;;;5.20;93.10;;;;;;5494962;26;20756;-86
2024/04/19 04:37:57;;;;;;;8.43;7.60;;;5.10;93.00;;;;;;5527207;26;20218;-86
2024/04/19 04:40:23;;;;;;;8.77;7.97;;;5.20;93.10;;;;;;5527183;26;20323;-86
2024/04/19 04:42:48;;;;;;;7.47;6.77;;;5.20;93.10;;;;;;5527016;26;20562;-86
2024/04/19 04:45:14;;;;;;;9.37;8.60;;;5.20;93.20;;;;;;5527139;26;20209;-86
2024/04/19 04:47:40;;;;;;;9.10;7.83;;;5.10;93.50;;;;;;5527514;26;20259;-85
2024/04/19 04:50:06;;;;;;;13.57;12.47;;;5.10;93.60;;;;;;5527284;26;20255;-86
2024/04/19 04:52:31;;;;;;;12.30;11.30;;;5.10;93.80;;;;;;5527439;26;20689;-86
2024/04/19 04:54:57;;;;;;;14.03;12.93;;;5.10;93.90;;;;;;5494505;26;20237;-86
2024/04/19 04:57:22;;;;;;;11.17;10.27;;;5.10;94.10;;;;;;5494538;26;20224;-86
2024/04/19 04:59:48;;;;;;;15.93;13.17;;;5.10;94.20;;;;;;5527081;26;20210;-86
2024/04/19 05:02:13;;;;;;;16.23;14.83;;;5.10;94.20;;;;;;5526835;26;20263;-86
2024/04/19 05:04:42;;;;;;;12.63;11.53;;;5.10;94.20;;;;;;5526798;26;20226;-86
2024/04/19 05:07:08;;;;;;;13.13;11.90;;;5.10;94.30;;;;;;5526988;26;20273;-85
2024/04/19 05:09:33;;;;;;;12.43;11.13;;;5.20;94.40;;;;;;5526778;26;20210;-86
2024/04/19 05:11:59;;;;;;;12.40;11.30;;;5.20;94.40;;;;;;5526217;26;20210;-86
2024/04/19 05:14:24;;;;;;;14.63;13.43;;;5.20;94.40;;;;;;5525991;26;20225;-85
2024/04/19 05:16:50;;;;;;;13.03;11.90;;;5.20;94.40;;;;;;5526763;26;20297;-86
2024/04/19 05:19:15;;;;;;;12.77;11.70;;;5.30;94.40;;;;;;5526649;26;20214;-87
2024/04/19 05:21:41;;;;;;;14.17;12.77;;;5.30;94.50;;;;;;5494023;26;20285;-85
2024/04/19 05:24:06;;;;;;;12.00;10.90;;;5.30;94.60;;;;;;5493815;26;20230;-85
2024/04/19 05:26:32;;;;;;;13.40;12.00;;;5.30;94.50;;;;;;5527072;26;20261;-85
2024/04/19 05:28:57;;;;;;;13.00;11.30;;;5.30;94.50;;;;;;5527394;26;20259;-85
2024/04/19 05:31:24;;;;;;;13.20;12.03;;;5.40;94.50;;;;;;5527016;26;20210;-91
2024/04/19 05:33:53;;;;;;;15.47;13.87;;;5.50;94.60;;;;;;5495112;26;20630;-86
2024/04/19 05:36:18;;;;;;;15.97;14.37;;;5.50;94.60;;;;;;5527273;26;20299;-88
2024/04/19 05:38:44;;;;;;;14.37;12.87;;;5.60;94.60;;;;;;5527131;26;20213;-87
2024/04/19 05:41:11;;;;;;;15.43;14.03;;;5.60;94.60;;;;;;5527156;26;20631;-87
2024/04/19 05:43:36;;;;;;;16.33;14.83;;;5.70;94.60;;;;;;5493670;26;20234;-86
2024/04/19 05:46:02;;;;;;;16.90;15.20;;;5.70;94.60;;;;;;5526509;26;20214;-86
2024/04/19 05:48:28;;;;;;;18.07;15.17;;;5.80;94.60;;;;;;5526796;26;20214;-86
2024/04/19 05:50:53;;;;;;;15.90;14.47;;;5.80;94.60;;;;;;5493617;26;20226;-86
2024/04/19 05:53:19;;;;;;;14.77;13.03;;;5.90;94.50;;;;;;5526260;26;20229;-86
2024/04/19 05:55:44;;;;;;;15.43;14.13;;;6.00;94.40;;;;;;5526353;26;20259;-87
2024/04/19 05:58:10;;;;;;;16.70;15.17;;;6.10;94.40;;;;;;5526388;26;20257;-86
2024/04/19 06:00:36;;;;;;;15.53;14.23;;;6.10;94.30;;;;;;5526768;26;20210;-90
2024/04/19 06:03:02;;;;;;;17.63;16.03;;;6.10;94.20;;;;;;5493677;26;20710;-90
2024/04/19 06:05:27;;;;;;;10.63;9.63;;;6.10;94.10;;;;;;5493389;26;20229;-90
2024/04/19 06:07:53;;;;;;;12.63;11.43;;;6.20;94.20;;;;;;5525892;26;20314;-86
2024/04/19 06:10:19;;;;;;;15.00;13.50;;;6.20;94.20;;;;;;5525940;26;20317;-87
2024/04/19 06:12:44;;;;;;;13.70;12.20;;;6.30;94.30;;;;;;5525797;26;20273;-86
2024/04/19 06:15:10;;;;;;;17.67;14.10;;;6.30;94.30;;;;;;5526242;26;20226;-87
2024/04/19 06:17:35;;;;;;;12.20;11.00;;;6.30;94.40;;;;;;5525903;26;20257;-87
2024/04/19 06:20:01;;;;;;;15.43;12.57;;;6.30;94.40;;;;;;5525874;26;20226;-87
2024/04/19 06:22:26;;;;;;;14.33;12.07;;;6.30;94.30;;;;;;5525656;26;20214;-87
2024/04/19 06:24:52;;;;;;;13.47;12.07;;;6.30;94.40;;;;;;5528424;26;20244;-87
2024/04/19 06:27:17;;;;;;;12.47;11.27;;;6.40;94.40;;;;;;5529613;26;20628;-88
2024/04/19 06:29:43;;;;;;;9.67;8.77;;;6.40;94.40;;;;;;5529356;26;20222;-85
2024/04/19 06:32:09;;;;;;;10.20;8.80;;;6.40;94.40;;;;;;5529473;26;20260;-87
2024/04/19 06:34:36;;;;;;;15.47;13.87;;;6.50;94.40;;;;;;5496721;26;20230;-86
2024/04/19 06:37:03;;;;;;;14.57;13.07;;;6.50;94.40;;;;;;5496850;26;20614;-86
2024/04/19 06:39:29;;;;;;;14.43;13.03;;;6.60;94.40;;;;;;5496486;26;20230;-87
2024/04/19 06:41:57;;;;;;;14.53;13.03;;;6.70;94.40;;;;;;5529222;26;20175;-86
2024/04/19 06:44:22;;;;;;;16.17;14.57;;;6.70;94.40;;;;;;5528759;26;20226;-86
2024/04/19 06:46:48;;;;;;;15.30;13.70;;;6.80;94.40;;;;;;5529220;26;20261;-86
2024/04/19 06:49:13;;;;;;;13.10;11.73;;;6.70;94.30;;;;;;5528926;26;20349;-86
2024/04/19 06:51:39;;;;;;;15.90;14.30;;;6.70;94.30;;;;;;5496458;26;20214;-86
2024/04/19 06:54:04;;;;;;;14.47;13.17;;;6.80;94.30;;;;;;5529418;26;20764;-87
2024/04/19 06:56:30;;;;;;;17.47;13.97;;;6.80;94.30;;;;;;5529590;26;20305;-88
2024/04/19 06:58:56;;;;;;;17.87;13.13;;;6.80;94.30;;;;;;5529472;26;20214;-85
2024/04/19 07:01:23;;;;;;;16.07;14.40;;;6.80;94.40;;;;;;5528805;26;20731;-86
2024/04/19 07:03:50;;;;;;;14.80;13.30;;;6.90;94.40;;;;;;5528924;26;20226;-87
2024/04/19 07:06:16;;;;;;;15.73;13.20;;;7.00;94.50;;;;;;5528944;26;20210;-84
2024/04/19 07:08:42;;;;;;;14.43;12.50;;;7.10;94.50;;;;;;5528756;26;20239;-88
2024/04/19 07:11:07;;;;;;;14.27;10.33;;;7.20;94.50;;;;;;5496837;26;20222;-86
2024/04/19 07:13:33;;;;;;;15.47;11.83;;;7.30;94.50;;;;;;5529359;26;20309;-87
2024/04/19 07:15:59;;;;;;;13.17;11.20;;;7.40;94.50;;;;;;5529211;26;20326;-87
2024/04/19 07:18:25;;;;;;;10.87;9.67;;;7.50;94.50;;;;;;5496815;26;20213;-87
2024/04/19 07:20:51;;;;;;;14.57;13.07;;;7.40;94.30;;;;;;5529585;26;20701;-87
2024/04/19 07:23:18;;;;;;;14.57;13.07;;;7.40;94.30;;;;;;5496254;26;20333;-87
2024/04/19 07:25:43;;;;;;;14.93;12.50;;;7.50;94.40;;;;;;5529178;26;20577;-87
2024/04/19 07:28:09;;;;;;;14.17;12.70;;;7.50;94.30;;;;;;5528989;26;20222;-87
2024/04/19 07:30:35;;;;;;;14.33;12.33;;;7.70;94.40;;;;;;5529031;26;20261;-87
2024/04/19 07:33:01;;;;;;;13.00;11.03;;;7.70;94.20;;;;;;5496704;26;20762;-87
2024/04/19 07:35:26;;;;;;;11.37;10.33;;;7.80;94.20;;;;;;5495069;26;20230;-87
2024/04/19 07:37:52;;;;;;;17.73;12.43;;;7.90;94.10;;;;;;5529060;26;20214;-87
2024/04/19 07:40:17;;;;;;;16.23;11.90;;;8.00;94.10;;;;;;5528536;26;20227;-87
2024/04/19 07:42:45;;;;;;;16.97;10.40;;;7.90;93.80;;;;;;5529270;26;20291;-87
2024/04/19 07:45:11;;;;;;;10.70;9.80;;;8.00;93.70;;;;;;5528652;26;20230;-85
2024/04/19 07:47:37;;;;;;;13.73;10.47;;;8.10;93.70;;;;;;5496131;26;20218;-85
2024/04/19 07:50:04;;;;;;;14.60;10.73;;;8.20;93.50;;;;;;5496522;26;20257;-86
2024/04/19 07:52:29;;;;;;;17.10;9.87;;;8.30;93.70;;;;;;5528795;26;20217;-86
2024/04/19 07:54:55;;;;;;;12.27;9.70;;;8.30;93.40;;;;;;5529087;26;20222;-86
2024/04/19 07:57:21;;;;;;;18.40;8.70;;;8.30;93.10;;;;;;5529034;26;20214;-87
2024/04/19 07:59:46;;;;;;;15.47;9.10;;;8.30;92.70;;;;;;5528814;26;20264;-86
2024/04/19 08:02:12;;;;;;;12.13;6.53;;;8.30;92.70;;;;;;5528088;26;20805;-86
2024/04/19 08:04:38;;;;;;;15.20;7.63;;;8.40;92.50;;;;;;5528771;26;20222;-88
2024/04/19 08:07:04;;;;;;;12.90;7.47;;;8.40;92.10;;;;;;5495398;26;20219;-87
2024/04/19 08:09:29;;;;;;;16.17;9.30;;;8.40;91.90;;;;;;5528767;26;20542;-88
2024/04/19 08:11:55;;;;;;;15.70;9.47;;;8.20;90.00;;;;;;5528186;26;20261;-87
2024/04/19 08:14:20;;;;;;;9.33;8.13;;;8.30;90.20;;;;;;5528366;26;20218;-86
2024/04/19 08:16:46;;;;;;;14.07;8.50;;;8.50;90.60;;;;;;5528385;26;20210;-87
2024/04/19 08:19:11;;;;;;;14.30;8.73;;;8.60;90.90;;;;;;5528815;26;20246;-87
2024/04/19 08:21:37;;;;;;;17.33;9.17;;;8.70;90.80;;;;;;5528118;26;20210;-86
2024/04/19 08:24:03;;;;;;;13.70;8.27;;;8.80;90.60;;;;;;5527669;26;20252;-87
2024/04/19 08:26:28;;;;;;;18.40;9.90;;;8.90;90.50;;;;;;5527860;26;20286;-87
2024/04/19 08:28:54;;;;;;;17.40;11.17;;;8.80;90.40;;;;;;5527700;26;20686;-87
2024/04/19 08:31:19;;;;;;;15.53;10.07;;;8.70;89.90;;;;;;5527954;26;20256;-87
2024/04/19 08:33:45;;;;;;;12.90;11.10;;;8.70;90.30;;;;;;5528293;26;20285;-88
2024/04/19 08:36:11;;;;;;;13.10;11.83;;;8.40;89.80;;;;;;5528026;26;20225;-87
2024/04/19 08:38:36;;;;;;;13.27;11.93;;;7.80;89.50;;;;;;5528323;26;20214;-88
2024/04/19 08:41:03;;;;;;;11.50;10.50;;;7.50;89.80;;;;;;5529292;26;20222;-85
2024/04/19 08:43:33;;;;;;;8.93;8.13;;;7.30;90.50;;;;;;5528149;26;20261;-88
2024/04/19 08:46:00;;;;;;;8.23;7.37;;;7.50;91.10;;;;;;5528107;26;20214;-90
2024/04/19 08:48:27;;;;;;;8.43;7.10;;;7.80;91.80;;;;;;5495883;26;20305;-86
2024/04/19 08:50:57;;;;;;;8.63;6.93;;;8.20;92.30;;;;;;5494961;26;20218;-88
2024/04/19 08:53:24;;;;;;;13.83;7.50;;;8.20;91.70;;;;;;5527682;26;20249;-89
2024/04/19 08:55:51;;;;;;;10.77;5.30;;;8.30;91.50;;;;;;5495056;26;20260;-87
2024/04/19 08:58:18;;;;;;;15.63;5.40;;;8.60;91.50;;;;;;5494966;26;20225;-86
2024/04/19 09:00:43;;;;;;;15.77;5.90;;;8.70;91.20;;;;;;5527578;26;20214;-91
2024/04/19 09:03:09;;;;;;;13.17;6.90;;;8.60;91.10;;;;;;5527057;26;20256;-90
2024/04/19 09:05:39;;;;;;;15.20;7.57;;;8.30;90.30;;;;;;5528676;26;20686;-89
2024/04/19 09:08:05;;;;;;;7.10;6.50;;;8.00;90.50;;;;;;5527168;26;20214;-88
2024/04/19 09:10:31;;;;;;;7.83;7.00;;;7.70;90.40;;;;;;5494806;26;20244;-87
2024/04/19 09:12:57;;;;;;;7.60;6.83;;;7.40;90.50;;;;;;5527329;26;20213;-85
2024/04/19 09:15:27;;;;;;;8.20;7.27;;;7.30;90.60;;;;;;5528032;26;20210;-87
2024/04/19 09:17:53;;;;;;;8.47;5.83;;;7.30;90.30;;;;;;5495047;26;20222;-87
2024/04/19 09:20:20;;;;;;;6.47;5.87;;;7.50;90.20;;;;;;5494673;26;20256;-87
2024/04/19 09:22:46;;;;;;;9.07;5.53;;;7.70;90.50;;;;;;5494222;26;20214;-88
2024/04/19 09:25:16;;;;;;;8.73;5.57;;;7.90;90.50;;;;;;5526963;26;20729;-87
2024/04/19 09:27:42;;;;;;;6.83;5.50;;;8.00;90.20;;;;;;5494583;26;20222;-88
2024/04/19 09:30:10;;;;;;;10.53;6.03;;;8.30;90.60;;;;;;5527171;26;20732;-86
2024/04/19 09:32:36;;;;;;;8.30;6.40;;;8.30;90.20;;;;;;5526897;26;20759;-87
2024/04/19 09:35:02;;;;;;;9.13;5.87;;;8.50;90.00;;;;;;5527087;26;20249;-89
2024/04/19 09:37:29;;;;;;;10.53;6.70;;;8.60;89.90;;;;;;5526667;26;20210;-89
2024/04/19 09:39:55;;;;;;;11.30;6.60;;;8.60;89.40;;;;;;5526378;26;20559;-89
2024/04/19 09:42:23;;;;;;;9.80;6.57;;;8.80;89.60;;;;;;5526274;26;20256;-88
2024/04/19 09:44:51;;;;;;;10.17;6.43;;;8.90;89.40;;;;;;5493755;26;20230;-88
2024/04/19 09:47:18;;;;;;;8.03;6.30;;;9.00;88.80;;;;;;5526612;26;20229;-90
2024/04/19 09:49:45;;;;;;;11.40;7.20;;;9.10;87.90;;;;;;5526244;26;20281;-88
2024/04/19 09:52:19;;;;;;;15.07;7.40;;;9.20;88.70;;;;;;5526418;26;20306;-89
2024/04/19 09:54:46;;;;;;;10.90;8.93;;;9.30;88.20;;;;;;5493589;26;20257;-89
2024/04/19 09:57:12;;;;;;;13.63;7.87;;;9.30;87.30;;;;;;5526005;26;20570;-90
2024/04/19 09:59:39;;;;;;;12.77;7.77;;;9.40;87.20;;;;;;5527997;26;20260;-88
2024/04/19 10:02:05;;;;;;;14.53;8.47;;;9.50;87.30;;;;;;5529910;26;20648;-88
2024/04/19 10:04:34;;;;;;;11.77;8.37;;;9.40;86.40;;;;;;5529711;26;20596;-89
2024/04/19 10:07:01;;;;;;;14.23;8.97;;;9.40;86.30;;;;;;5529792;26;20206;-88
2024/04/19 10:09:28;;;;;;;9.40;7.63;;;9.00;86.40;;;;;;5529519;26;20232;-89
2024/04/19 10:11:55;;;;;;;9.23;8.27;;;9.20;86.30;;;;;;5497181;26;20596;-88
2024/04/19 10:14:23;;;;;;;10.70;9.17;;;9.20;85.50;;;;;;5529602;26;20256;-88
2024/04/19 10:16:48;;;;;;;8.53;7.67;;;9.40;84.80;;;;;;5497100;26;20686;-88
2024/04/19 10:19:15;;;;;;;14.90;8.80;;;9.70;85.10;;;;;;5529688;26;20257;-89
2024/04/19 10:21:42;;;;;;;11.53;9.50;;;9.80;83.50;;;;;;5529837;26;20214;-88
2024/04/19 10:24:16;;;;;;;11.73;9.23;;;9.90;83.10;;;;;;5496566;26;20230;-89
2024/04/19 10:26:43;;;;;;;10.43;9.43;;;10.20;84.10;;;;;;5529827;26;20187;-88
2024/04/19 10:29:09;;;;;;;11.93;10.00;;;10.10;81.90;;;;;;5529330;26;20210;-89
2024/04/19 10:31:34;;;;;;;12.73;11.23;;;10.20;81.90;;;;;;5529382;26;20264;-88
2024/04/19 10:34:00;;;;;;;12.13;10.90;;;9.80;82.10;;;;;;5529736;26;20225;-88
2024/04/19 10:36:30;;;;;;;12.57;9.43;;;9.30;81.10;;;;;;5496568;26;20229;-89
2024/04/19 10:38:58;;;;;;;8.83;7.70;;;9.40;82.90;;;;;;5496494;26;20599;-90
2024/04/19 10:41:23;;;;;;;11.37;8.63;;;10.10;83.70;;;;;;5529562;26;20222;-89
2024/04/19 10:43:49;;;;;;;10.67;9.67;;;10.30;82.80;;;;;;5528812;26;20694;-89
2024/04/19 10:46:17;;;;;;;15.73;11.57;;;10.00;81.00;;;;;;5529091;26;20253;-89
2024/04/19 10:48:43;;;;;;;12.00;10.73;;;10.00;81.60;;;;;;5529406;26;20256;-88
2024/04/19 10:51:15;;;;;;;16.83;11.40;;;10.10;82.10;;;;;;5496462;26;20214;-89
2024/04/19 10:53:41;;;;;;;13.27;10.73;;;10.00;81.90;;;;;;5529324;26;20280;-89
2024/04/19 10:56:07;;;;;;;14.60;10.07;;;10.00;81.70;;;;;;5529024;26;20210;-90
2024/04/19 10:58:33;;;;;;;11.50;10.40;;;10.10;82.40;;;;;;5528853;26;20222;-90
2024/04/19 11:00:59;;;;;;;14.50;10.23;;;10.00;80.90;;;;;;5529321;26;20257;-88
2024/04/19 11:03:25;;;;;;;15.10;11.63;;;10.10;81.80;;;;;;5528729;26;20218;-87
2024/04/19 11:05:52;;;;;;;12.30;11.00;;;10.20;81.10;;;;;;5528931;26;20612;-90
2024/04/19 11:08:18;;;;;;;15.33;9.60;;;10.00;81.70;;;;;;5496257;26;20244;-89
2024/04/19 11:10:44;;;;;;;17.40;10.47;;;10.30;83.00;;;;;;5494484;26;20230;-89
2024/04/19 11:13:11;;;;;;;14.40;9.83;;;10.40;82.90;;;;;;5529344;26;20266;-89
2024/04/19 11:15:36;;;;;;;15.50;10.73;;;10.00;82.90;;;;;;5529106;26;20629;-82
2024/04/19 11:18:03;;;;;;;20.17;9.63;;;9.30;83.10;;;;;;5531226;26;20210;-83
2024/04/19 11:20:28;;;;;;;16.37;9.67;;;8.90;85.30;;;;;;5529973;26;20214;-82
2024/04/19 11:22:56;;;;;;;12.87;8.50;;;8.90;86.20;;;;;;5531138;26;20218;-86
2024/04/19 11:25:22;;;;;;;13.17;7.67;;;9.00;85.90;;;;;;5531629;26;20214;-83
2024/04/19 11:27:49;;;;;;;17.17;8.17;;;9.50;86.20;;;;;;5530040;26;20662;-84
2024/04/19 11:30:15;;;;;;;16.07;8.60;;;9.90;85.50;;;;;;5528140;26;20230;-84
2024/04/19 11:32:41;;;;;;;12.57;9.20;;;10.00;82.80;;;;;;5528107;26;20261;-84
2024/04/19 11:35:10;;;;;;;13.43;10.50;;;10.30;82.00;;;;;;5528053;26;20260;-83
2024/04/19 11:37:36;;;;;;;15.40;10.60;;;10.30;80.00;;;;;;5528231;26;20221;-83
2024/04/19 11:40:03;;;;;;;12.20;10.80;;;10.30;79.80;;;;;;5528753;26;20268;-83
2024/04/19 11:42:28;;;;;;;17.73;16.13;;;10.60;80.30;;;;;;5527939;26;20214;-82
2024/04/19 11:44:54;;;;;;;17.17;15.57;;;10.60;78.20;;;;;;5527804;26;20736;-82
2024/04/19 11:47:20;;;;;;;16.60;13.90;;;10.80;79.10;;;;;;5527928;26;20214;-83
2024/04/19 11:49:45;;;;;;;18.40;16.63;;;11.00;79.00;;;;;;5527821;26;20218;-84
2024/04/19 11:52:11;;;;;;;22.97;20.57;;;11.10;75.60;;;;;;5528018;26;20678;-83
2024/04/19 11:54:37;;;;;;;19.97;18.50;;;10.50;73.50;;;;;;5527969;26;20226;-83
2024/04/19 11:57:03;;;;;;;21.70;19.17;;;10.60;74.00;;;;;;5528145;26;20245;-82
2024/04/19 11:59:29;;;;;;;24.23;22.30;;;10.80;74.50;;;;;;5527651;26;20221;-83
2024/04/19 12:01:55;;;;;;;23.83;22.03;;;10.70;71.40;;;;;;5527979;26;20313;-84
2024/04/19 12:04:21;;;;;;;32.50;23.83;;;10.00;72.10;;;;;;5494837;26;20666;-83
2024/04/19 12:06:47;;;;;;;26.57;23.90;;;9.80;72.30;;;;;;5527699;26;20210;-82
2024/04/19 12:09:13;;;;;;;23.93;21.60;;;10.30;72.30;;;;;;5528100;26;20329;-83
2024/04/19 12:11:39;;;;;;;23.67;21.67;;;10.90;72.10;;;;;;5529052;26;20270;-82
2024/04/19 12:14:05;;;;;;;25.13;22.67;;;10.70;70.60;;;;;;5527595;26;20249;-83
2024/04/19 12:16:31;;;;;;;24.50;22.80;;;10.50;71.70;;;;;;5497491;26;20214;-83
2024/04/19 12:18:56;;;;;;;22.87;20.93;;;10.30;70.80;;;;;;5530563;26;20733;-83
2024/04/19 12:21:22;;;;;;;25.83;23.47;;;10.50;73.20;;;;;;5528994;26;20737;-82
2024/04/19 12:23:47;;;;;;;24.93;22.50;;;10.60;72.70;;;;;;5527445;26;20222;-82
2024/04/19 12:26:13;;;;;;;23.67;21.30;;;11.00;74.10;;;;;;5527758;26;20321;-83
2024/04/19 12:28:39;;;;;;;22.27;20.07;;;10.90;73.70;;;;;;5527831;26;20658;-83
2024/04/19 12:31:04;;;;;;;22.33;20.07;;;11.00;75.10;;;;;;5527437;26;20265;-82
2024/04/19 12:33:30;;;;;;;23.27;21.20;;;10.70;75.70;;;;;;5527362;26;20226;-84
2024/04/19 12:35:55;;;;;;;23.37;21.10;;;10.60;75.30;;;;;;5527593;26;20222;-83
2024/04/19 12:38:22;;;;;;;19.80;15.80;;;10.50;75.90;;;;;;5527488;26;20257;-83
2024/04/19 12:40:48;;;;;;;22.70;15.30;;;10.10;74.00;;;;;;5527600;26;20233;-83
2024/04/19 12:43:14;;;;;;;21.40;14.77;;;10.30;75.70;;;;;;5528604;26;20557;-83